Time;durP1;ratioP1;P1;durP2;ratioP2;P2;SDS_P1;SDS_P2;PMS_P1;PMS_P2;Temp;Humidity;BMP_temperature;BMP_pressure;BME280_temperature;BME280_humidity;BME280_pressure;Samples;Min_cycle;Max_cycle;Signal;HPM_P1;HPM_P2
2023/05/04 00:01:34;;;;;;;13.45;9.45;;;;;;;;;;5072982;28;20418;-69
2023/05/04 00:04:01;;;;;;;11.02;7.22;;;;;;;;;;5072745;28;20149;-69
2023/05/04 00:06:27;;;;;;;11.95;8.02;;;;;;;;;;5072916;28;20178;-69
2023/05/04 00:08:54;;;;;;;12.15;8.15;;;;;;;;;;5072930;28;20116;-68
2023/05/04 00:11:21;;;;;;;11.43;7.32;;;;;;;;;;5072585;28;20024;-68
2023/05/04 00:13:48;;;;;;;14.85;8.15;;;;;;;;;;5072749;28;20024;-68
2023/05/04 00:16:15;;;;;;;11.70;7.22;;;;;;;;;;5072853;28;20051;-68
2023/05/04 00:18:41;;;;;;;14.93;7.05;;;;;;;;;;5072666;28;20029;-68
2023/05/04 00:21:08;;;;;;;15.27;7.43;;;;;;;;;;5072968;28;20335;-68
2023/05/04 00:23:35;;;;;;;18.27;8.50;;;;;;;;;;5075596;28;20374;-68
2023/05/04 00:26:02;;;;;;;12.77;8.52;;;;;;;;;;5080014;28;20497;-68
2023/05/04 00:28:28;;;;;;;22.40;9.15;;;;;;;;;;5083206;28;20033;-70
2023/05/04 00:30:55;;;;;;;15.10;9.15;;;;;;;;;;5083155;28;20081;-69
2023/05/04 00:33:22;;;;;;;16.88;8.35;;;;;;;;;;5082658;28;20047;-69
2023/05/04 00:35:49;;;;;;;14.38;8.65;;;;;;;;;;5081176;28;20017;-69
2023/05/04 00:38:16;;;;;;;12.77;8.95;;;;;;;;;;5082570;28;20073;-69
2023/05/04 00:40:43;;;;;;;17.25;9.48;;;;;;;;;;5086020;28;20020;-69
2023/05/04 00:43:10;;;;;;;17.55;9.90;;;;;;;;;;5084855;28;20028;-70
2023/05/04 00:45:37;;;;;;;13.30;9.95;;;;;;;;;;5086612;28;20481;-71
2023/05/04 00:48:05;;;;;;;17.27;10.07;;;;;;;;;;5086646;28;20417;-70
2023/05/04 00:50:31;;;;;;;16.17;9.73;;;;;;;;;;5085006;28;20028;-67
2023/05/04 00:52:59;;;;;;;14.60;9.73;;;;;;;;;;5090886;28;20020;-66
2023/05/04 00:55:26;;;;;;;18.10;11.40;;;;;;;;;;5131835;22;20052;-67
2023/05/04 00:57:53;;;;;;;16.88;11.43;;;;;;;;;;5116914;28;20039;-67
2023/05/04 01:00:20;;;;;;;21.05;12.50;;;;;;;;;;5116845;28;20510;-67
2023/05/04 01:02:47;;;;;;;17.17;11.02;;;;;;;;;;5116835;28;20028;-66
2023/05/04 01:05:13;;;;;;;18.73;12.65;;;;;;;;;;5098413;28;20373;-67
2023/05/04 01:08:00;;;;;;;21.98;13.18;;;;;;;;;;5116565;28;20030;-66
2023/05/04 01:10:34;;;;;;;17.77;12.77;;;;;;;;;;5111073;28;20039;-66
2023/05/04 01:13:03;;;;;;;22.15;13.75;;;;;;;;;;5116539;28;20032;-67
2023/05/04 01:15:31;;;;;;;19.77;12.93;;;;;;;;;;5116483;28;20031;-66
2023/05/04 01:17:58;;;;;;;21.95;13.38;;;;;;;;;;5116522;28;20383;-68
2023/05/04 01:20:24;;;;;;;21.20;13.93;;;;;;;;;;5116531;28;20020;-68
2023/05/04 01:22:51;;;;;;;92.32;72.47;;;;;;;;;;5124366;27;20110;-68
2023/05/04 01:25:18;;;;;;;143.82;114.10;;;;;;;;;;5137707;27;20026;-70
2023/05/04 01:27:46;;;;;;;85.97;64.90;;;;;;;;;;5137005;27;20094;-69
2023/05/04 01:30:18;;;;;;;78.00;56.70;;;;;;;;;;5136747;27;20023;-68
2023/05/04 01:32:45;;;;;;;;;;;;;;;;;;5137086;27;20062;-67
2023/05/04 01:35:12;;;;;;;90.03;65.70;;;;;;;;;;5136904;27;20368;-68
2023/05/04 01:37:39;;;;;;;34.10;23.70;;;;;;;;;;5136451;27;20023;-69
2023/05/04 01:40:06;;;;;;;28.27;18.23;;;;;;;;;;5137137;27;20546;-67
2023/05/04 01:42:33;;;;;;;32.20;25.38;;;;;;;;;;5137061;27;20115;-70
2023/05/04 01:44:59;;;;;;;37.22;22.23;;;;;;;;;;5137028;27;20015;-69
2023/05/04 01:47:26;;;;;;;89.00;61.20;;;;;;;;;;5136597;27;20023;-67
2023/05/04 01:49:53;;;;;;;41.40;29.23;;;;;;;;;;5136152;27;20054;-67
2023/05/04 01:52:19;;;;;;;37.35;23.67;;;;;;;;;;5136223;27;20026;-68
2023/05/04 01:54:46;;;;;;;48.45;33.13;;;;;;;;;;5132574;27;20051;-68
2023/05/04 01:57:12;;;;;;;29.48;18.63;;;;;;;;;;5115763;28;20104;-67
2023/05/04 01:59:39;;;;;;;29.42;18.17;;;;;;;;;;5104245;28;20020;-66
2023/05/04 02:02:06;;;;;;;52.38;36.08;;;;;;;;;;5110609;28;20281;-68
2023/05/04 02:04:32;;;;;;;72.35;48.08;;;;;;;;;;5106891;28;20022;-67
2023/05/04 02:06:59;;;;;;;58.08;41.33;;;;;;;;;;5105195;28;20264;-68
2023/05/04 02:09:26;;;;;;;100.88;78.03;;;;;;;;;;5103191;28;20059;-66
2023/05/04 02:11:53;;;;;;;189.73;130.18;;;;;;;;;;5098862;28;20028;-67
2023/05/04 02:14:19;;;;;;;86.25;59.65;;;;;;;;;;5105260;28;20012;-69
2023/05/04 02:16:46;;;;;;;77.60;51.53;;;;;;;;;;5106396;28;20024;-67
2023/05/04 02:19:13;;;;;;;70.13;52.53;;;;;;;;;;5103646;28;20036;-67
2023/05/04 02:21:41;;;;;;;86.47;60.88;;;;;;;;;;5094994;28;20075;-68
2023/05/04 02:24:07;;;;;;;89.75;67.57;;;;;;;;;;5094481;28;20023;-67
2023/05/04 02:26:35;;;;;;;165.75;120.95;;;;;;;;;;5094289;28;20495;-66
2023/05/04 02:29:03;;;;;;;81.43;54.13;;;;;;;;;;5101593;28;20037;-67
2023/05/04 02:31:30;;;;;;;43.80;29.17;;;;;;;;;;5106007;28;20023;-67
2023/05/04 02:33:56;;;;;;;41.17;25.30;;;;;;;;;;5104879;28;20032;-67
2023/05/04 02:36:23;;;;;;;38.10;24.45;;;;;;;;;;5103253;28;20047;-67
2023/05/04 02:38:50;;;;;;;45.85;28.98;;;;;;;;;;5104511;28;20045;-70
2023/05/04 02:41:16;;;;;;;48.03;28.92;;;;;;;;;;5105288;28;20030;-68
2023/05/04 02:43:43;;;;;;;47.40;29.73;;;;;;;;;;5103461;28;20055;-68
2023/05/04 02:46:10;;;;;;;53.30;30.23;;;;;;;;;;5104271;28;20024;-67
2023/05/04 02:48:36;;;;;;;59.65;32.38;;;;;;;;;;5104466;28;20016;-67
2023/05/04 02:51:03;;;;;;;58.40;36.15;;;;;;;;;;5102349;28;20148;-69
2023/05/04 02:53:29;;;;;;;161.77;118.15;;;;;;;;;;5103745;28;20065;-68
2023/05/04 02:55:56;;;;;;;98.57;62.38;;;;;;;;;;5103841;28;20031;-69
2023/05/04 02:58:23;;;;;;;61.08;32.83;;;;;;;;;;5103886;28;20043;-68
2023/05/04 03:00:54;;;;;;;50.92;29.83;;;;;;;;;;5107985;28;20024;-65
2023/05/04 03:03:21;;;;;;;50.60;28.37;;;;;;;;;;5102645;28;20031;-67
2023/05/04 03:05:47;;;;;;;44.97;27.23;;;;;;;;;;5102024;28;20737;-67
2023/05/04 03:08:14;;;;;;;36.60;22.85;;;;;;;;;;5103450;28;20038;-69
2023/05/04 03:10:41;;;;;;;31.75;18.73;;;;;;;;;;5103599;28;20058;-70
2023/05/04 03:13:07;;;;;;;38.60;22.60;;;;;;;;;;5103774;28;20024;-68
2023/05/04 03:15:34;;;;;;;31.23;20.00;;;;;;;;;;5099633;28;20044;-68
2023/05/04 03:18:01;;;;;;;34.90;19.35;;;;;;;;;;5095381;28;20099;-70
2023/05/04 03:20:28;;;;;;;35.03;20.95;;;;;;;;;;5095335;28;20055;-69
2023/05/04 03:22:54;;;;;;;37.10;22.58;;;;;;;;;;5094834;28;20031;-69
2023/05/04 03:25:21;;;;;;;30.60;20.73;;;;;;;;;;5095729;28;20424;-69
2023/05/04 03:27:48;;;;;;;28.55;18.83;;;;;;;;;;5106737;28;20035;-73
2023/05/04 03:30:15;;;;;;;33.97;22.23;;;;;;;;;;5095102;28;20020;-69
2023/05/04 03:32:41;;;;;;;30.48;19.27;;;;;;;;;;5095132;28;20024;-69
2023/05/04 03:35:08;;;;;;;29.00;19.38;;;;;;;;;;5095198;28;20476;-69
2023/05/04 03:37:35;;;;;;;29.00;18.80;;;;;;;;;;5094910;28;20043;-69
2023/05/04 03:40:02;;;;;;;25.38;16.33;;;;;;;;;;5092717;28;20497;-72
2023/05/04 03:42:28;;;;;;;26.80;18.88;;;;;;;;;;5094007;28;20059;-70
2023/05/04 03:44:55;;;;;;;28.17;18.90;;;;;;;;;;5094556;28;20108;-71
2023/05/04 03:47:22;;;;;;;25.75;17.48;;;;;;;;;;5094381;28;20491;-68
2023/05/04 03:49:48;;;;;;;25.67;16.60;;;;;;;;;;5093122;28;20344;-70
2023/05/04 03:52:15;;;;;;;23.23;14.77;;;;;;;;;;5093879;28;20039;-70
2023/05/04 03:54:41;;;;;;;28.17;15.68;;;;;;;;;;5094321;28;20044;-70
2023/05/04 03:57:08;;;;;;;24.90;16.83;;;;;;;;;;5094699;28;20088;-70
2023/05/04 03:59:35;;;;;;;24.88;17.52;;;;;;;;;;5095003;28;20031;-71
2023/05/04 04:02:02;;;;;;;34.20;18.70;;;;;;;;;;5115610;28;20026;-71
2023/05/04 04:04:28;;;;;;;22.92;16.52;;;;;;;;;;5114947;28;20028;-71
2023/05/04 04:06:55;;;;;;;25.42;17.30;;;;;;;;;;5115418;28;20429;-71
2023/05/04 04:09:21;;;;;;;25.40;17.23;;;;;;;;;;5115405;28;20028;-71
2023/05/04 04:11:48;;;;;;;44.28;24.48;;;;;;;;;;5115309;28;20066;-70
2023/05/04 04:14:15;;;;;;;53.88;28.65;;;;;;;;;;5119819;28;20030;-71
2023/05/04 04:16:41;;;;;;;55.65;30.02;;;;;;;;;;5121911;28;20016;-70
2023/05/04 04:19:08;;;;;;;51.50;29.88;;;;;;;;;;5121331;28;20015;-69
2023/05/04 04:21:35;;;;;;;46.17;27.77;;;;;;;;;;5121595;28;20027;-71
2023/05/04 04:24:01;;;;;;;41.90;26.90;;;;;;;;;;5121707;28;20039;-69
2023/05/04 04:26:28;;;;;;;37.13;24.15;;;;;;;;;;5121543;28;20023;-71
2023/05/04 04:28:55;;;;;;;43.30;28.60;;;;;;;;;;5117867;28;20039;-70
2023/05/04 04:31:21;;;;;;;46.83;27.63;;;;;;;;;;5105515;28;20465;-71
2023/05/04 04:33:50;;;;;;;36.75;23.88;;;;;;;;;;5101099;28;20478;-72
2023/05/04 04:36:17;;;;;;;40.20;24.95;;;;;;;;;;5102484;28;20084;-72
2023/05/04 04:38:44;;;;;;;47.92;27.45;;;;;;;;;;5112273;28;20192;-73
2023/05/04 04:41:10;;;;;;;41.67;27.60;;;;;;;;;;5117013;28;20034;-73
2023/05/04 04:43:37;;;;;;;39.25;25.88;;;;;;;;;;5121524;28;20031;-71
2023/05/04 04:46:03;;;;;;;33.92;24.38;;;;;;;;;;5121241;28;20034;-70
2023/05/04 04:48:30;;;;;;;41.40;25.08;;;;;;;;;;5121260;28;20414;-70
2023/05/04 04:50:57;;;;;;;32.47;21.20;;;;;;;;;;5120760;28;20183;-70
2023/05/04 04:53:24;;;;;;;29.90;21.75;;;;;;;;;;5121216;28;20075;-70
2023/05/04 04:55:51;;;;;;;30.83;22.48;;;;;;;;;;5121073;28;20047;-71
2023/05/04 04:58:18;;;;;;;32.10;21.27;;;;;;;;;;5121384;28;20135;-72
2023/05/04 05:00:46;;;;;;;35.55;22.98;;;;;;;;;;5120797;28;20031;-72
2023/05/04 05:03:12;;;;;;;34.90;22.75;;;;;;;;;;5121513;28;20026;-72
2023/05/04 05:05:39;;;;;;;27.40;19.92;;;;;;;;;;5121419;28;20024;-73
2023/05/04 05:08:06;;;;;;;32.22;18.90;;;;;;;;;;5120653;28;20035;-74
2023/05/04 05:10:32;;;;;;;29.20;18.90;;;;;;;;;;5121234;28;20426;-74
2023/05/04 05:12:59;;;;;;;27.05;18.50;;;;;;;;;;5121431;28;20022;-74
2023/05/04 05:15:25;;;;;;;32.75;19.75;;;;;;;;;;5120439;28;20020;-73
2023/05/04 05:17:52;;;;;;;23.65;16.88;;;;;;;;;;5111048;28;20016;-71
2023/05/04 05:20:20;;;;;;;28.40;19.23;;;;;;;;;;5099661;28;20026;-67
2023/05/04 05:22:46;;;;;;;28.27;16.95;;;;;;;;;;5098672;28;20031;-70
2023/05/04 05:25:13;;;;;;;23.30;15.93;;;;;;;;;;5096485;28;20024;-67
2023/05/04 05:27:40;;;;;;;22.73;15.05;;;;;;;;;;5096335;28;20396;-68
2023/05/04 05:30:06;;;;;;;22.92;15.27;;;;;;;;;;5096008;28;20480;-68
2023/05/04 05:32:33;;;;;;;21.63;15.18;;;;;;;;;;5096379;28;20385;-68
2023/05/04 05:35:00;;;;;;;23.30;14.43;;;;;;;;;;5096698;28;20358;-69
2023/05/04 05:37:27;;;;;;;17.88;13.38;;;;;;;;;;5095316;28;20362;-69
2023/05/04 05:39:53;;;;;;;17.65;12.60;;;;;;;;;;5095489;28;20028;-69
2023/05/04 05:42:20;;;;;;;19.02;12.45;;;;;;;;;;5095686;28;20024;-68
2023/05/04 05:44:46;;;;;;;19.15;11.98;;;;;;;;;;5095815;28;20055;-70
2023/05/04 05:47:13;;;;;;;15.75;12.18;;;;;;;;;;5096421;28;20023;-68
2023/05/04 05:49:40;;;;;;;17.75;12.55;;;;;;;;;;5096506;28;20107;-67
2023/05/04 05:52:07;;;;;;;16.17;13.10;;;;;;;;;;5096335;28;20035;-69
2023/05/04 05:54:34;;;;;;;14.57;11.10;;;;;;;;;;5097102;28;20119;-68
2023/05/04 05:57:01;;;;;;;12.80;9.43;;;;;;;;;;5097028;28;20020;-68
2023/05/04 05:59:27;;;;;;;12.88;10.75;;;;;;;;;;5097094;28;20069;-69
2023/05/04 06:01:54;;;;;;;16.60;11.38;;;;;;;;;;5096551;28;20042;-69
2023/05/04 06:04:21;;;;;;;16.17;10.50;;;;;;;;;;5100790;28;20061;-67
2023/05/04 06:06:48;;;;;;;16.63;10.85;;;;;;;;;;5101789;28;20086;-68
2023/05/04 06:09:14;;;;;;;14.73;11.90;;;;;;;;;;5095912;28;20024;-69
2023/05/04 06:11:41;;;;;;;15.60;10.90;;;;;;;;;;5098879;28;20487;-69
2023/05/04 06:14:07;;;;;;;15.35;11.68;;;;;;;;;;5115521;28;20046;-71
2023/05/04 06:16:34;;;;;;;13.93;11.32;;;;;;;;;;5098097;28;20382;-70
2023/05/04 06:19:01;;;;;;;15.27;11.43;;;;;;;;;;5095484;28;20481;-73
2023/05/04 06:21:27;;;;;;;20.73;11.68;;;;;;;;;;5098209;28;20039;-71
2023/05/04 06:23:54;;;;;;;14.68;10.27;;;;;;;;;;5095227;28;20062;-72
2023/05/04 06:26:21;;;;;;;16.33;10.15;;;;;;;;;;5095375;28;20136;-72
2023/05/04 06:28:48;;;;;;;18.23;11.55;;;;;;;;;;5095514;28;20054;-71
2023/05/04 06:31:14;;;;;;;13.40;10.50;;;;;;;;;;5095023;28;20397;-73
2023/05/04 06:33:41;;;;;;;13.52;9.80;;;;;;;;;;5095462;28;20103;-71
2023/05/04 06:36:08;;;;;;;16.35;10.73;;;;;;;;;;5094765;28;20016;-71
2023/05/04 06:38:34;;;;;;;15.32;10.20;;;;;;;;;;5100112;28;20034;-72
2023/05/04 06:41:01;;;;;;;16.35;12.07;;;;;;;;;;5104133;28;20019;-70
2023/05/04 06:43:28;;;;;;;13.80;10.10;;;;;;;;;;5103323;28;20524;-72
2023/05/04 06:45:55;;;;;;;14.48;10.40;;;;;;;;;;5107995;28;20114;-71
2023/05/04 06:48:21;;;;;;;12.63;10.43;;;;;;;;;;5105048;28;20024;-72
2023/05/04 06:50:48;;;;;;;12.02;9.20;;;;;;;;;;5108345;28;20158;-73
2023/05/04 06:53:15;;;;;;;15.38;10.48;;;;;;;;;;5103140;28;20031;-73
2023/05/04 06:55:42;;;;;;;28.10;23.50;;;;;;;;;;5103830;28;20039;-71
2023/05/04 06:58:08;;;;;;;15.18;9.40;;;;;;;;;;5122695;22;20132;-72
2023/05/04 07:00:35;;;;;;;11.23;9.75;;;;;;;;;;5104356;28;20472;-71
2023/05/04 07:03:02;;;;;;;13.13;9.40;;;;;;;;;;5104005;28;20024;-70
2023/05/04 07:05:29;;;;;;;11.63;8.55;;;;;;;;;;5105064;28;20059;-69
2023/05/04 07:07:57;;;;;;;15.55;11.45;;;;;;;;;;5102935;28;20020;-71
2023/05/04 07:10:24;;;;;;;12.45;10.43;;;;;;;;;;5100911;28;20020;-70
2023/05/04 07:12:50;;;;;;;17.95;12.77;;;;;;;;;;5104710;28;20059;-71
2023/05/04 07:15:17;;;;;;;15.45;11.27;;;;;;;;;;5102389;28;20016;-71
2023/05/04 07:17:45;;;;;;;14.55;9.80;;;;;;;;;;5105881;27;20043;-71
2023/05/04 07:20:13;;;;;;;12.85;9.77;;;;;;;;;;5102657;28;20501;-69
2023/05/04 07:22:40;;;;;;;12.68;10.15;;;;;;;;;;5104215;28;20027;-70
2023/05/04 07:25:07;;;;;;;16.55;11.77;;;;;;;;;;5103611;28;20500;-72
2023/05/04 07:27:34;;;;;;;10.15;8.98;;;;;;;;;;5106340;28;20057;-72
2023/05/04 07:30:02;;;;;;;11.18;9.15;;;;;;;;;;5102840;28;20062;-72
2023/05/04 07:32:28;;;;;;;10.38;9.25;;;;;;;;;;5102962;28;20019;-72
2023/05/04 07:34:55;;;;;;;35.78;26.75;;;;;;;;;;5104177;28;20023;-74
2023/05/04 07:37:22;;;;;;;11.18;9.18;;;;;;;;;;5099819;28;20025;-71
2023/05/04 07:39:48;;;;;;;76.32;64.22;;;;;;;;;;5082540;28;20012;-72
2023/05/04 07:42:15;;;;;;;27.02;23.45;;;;;;;;;;5083866;28;20024;-71
2023/05/04 07:44:42;;;;;;;23.05;18.95;;;;;;;;;;5082403;28;20071;-74
2023/05/04 07:47:09;;;;;;;19.33;13.52;;;;;;;;;;5082105;28;20042;-72
2023/05/04 07:49:36;;;;;;;16.15;11.63;;;;;;;;;;5083559;28;20090;-72
2023/05/04 07:52:03;;;;;;;14.95;9.65;;;;;;;;;;5082035;28;20063;-73
2023/05/04 07:54:30;;;;;;;13.10;9.68;;;;;;;;;;5082152;28;20014;-72
2023/05/04 07:56:56;;;;;;;9.88;8.23;;;;;;;;;;5083815;28;20477;-70
2023/05/04 07:59:23;;;;;;;13.15;9.25;;;;;;;;;;5082326;28;20033;-67
2023/05/04 08:01:50;;;;;;;23.25;18.63;;;;;;;;;;5083419;28;20029;-71
2023/05/04 08:04:16;;;;;;;20.35;18.13;;;;;;;;;;5080657;28;20024;-75
2023/05/04 08:06:43;;;;;;;41.92;35.00;;;;;;;;;;5083057;28;20028;-73
2023/05/04 08:09:10;;;;;;;22.90;18.77;;;;;;;;;;5080098;28;20385;-74
2023/05/04 08:11:36;;;;;;;10.25;9.15;;;;;;;;;;5085217;28;20028;-75
2023/05/04 08:14:06;;;;;;;23.95;19.02;;;;;;;;;;5073320;28;20012;-73
2023/05/04 08:16:33;;;;;;;12.63;11.18;;;;;;;;;;5073440;28;20095;-74
2023/05/04 08:19:00;;;;;;;11.38;9.88;;;;;;;;;;5073706;28;20058;-74
2023/05/04 08:21:26;;;;;;;15.13;8.95;;;;;;;;;;5079205;28;20035;-73
2023/05/04 08:23:53;;;;;;;10.27;9.18;;;;;;;;;;5084092;28;20023;-73
2023/05/04 08:26:20;;;;;;;10.82;9.65;;;;;;;;;;5083293;28;20487;-78
2023/05/04 08:28:47;;;;;;;12.95;9.43;;;;;;;;;;5082574;28;20472;-74
2023/05/04 08:31:13;;;;;;;15.10;9.05;;;;;;;;;;5089361;28;20020;-72
2023/05/04 08:33:40;;;;;;;14.05;10.52;;;;;;;;;;5090495;28;20034;-75
2023/05/04 08:36:08;;;;;;;11.75;8.88;;;;;;;;;;5093327;28;20024;-74
2023/05/04 08:38:35;;;;;;;11.18;9.25;;;;;;;;;;5093061;28;20056;-73
2023/05/04 08:41:04;;;;;;;14.55;9.55;;;;;;;;;;5093461;28;20077;-72
2023/05/04 08:43:31;;;;;;;11.93;8.80;;;;;;;;;;5093479;28;20024;-73
2023/05/04 08:45:57;;;;;;;13.20;8.93;;;;;;;;;;5093445;28;20468;-75
2023/05/04 08:48:24;;;;;;;14.18;11.05;;;;;;;;;;5093647;28;20090;-75
2023/05/04 08:50:51;;;;;;;12.90;9.73;;;;;;;;;;5093765;28;20027;-75
2023/05/04 08:53:19;;;;;;;12.02;9.77;;;;;;;;;;5091196;28;20050;-74
2023/05/04 08:55:46;;;;;;;12.48;9.63;;;;;;;;;;5092235;28;20013;-73
2023/05/04 08:58:16;;;;;;;13.35;10.13;;;;;;;;;;5093118;28;20020;-74
2023/05/04 09:00:43;;;;;;;12.45;9.70;;;;;;;;;;5095166;28;20016;-77
2023/05/04 09:03:11;;;;;;;11.43;9.15;;;;;;;;;;5097210;28;20023;-75
2023/05/04 09:05:37;;;;;;;11.82;9.93;;;;;;;;;;5090837;28;20020;-74
2023/05/04 09:08:05;;;;;;;12.07;9.63;;;;;;;;;;5084010;28;20189;-75
2023/05/04 09:10:31;;;;;;;20.17;14.63;;;;;;;;;;5076576;28;20074;-75
2023/05/04 09:12:58;;;;;;;17.42;10.93;;;;;;;;;;5076684;28;20024;-72
2023/05/04 09:15:25;;;;;;;13.55;9.82;;;;;;;;;;5076676;28;20028;-71
2023/05/04 09:18:11;;;;;;;15.30;10.00;;;;;;;;;;5076853;28;20016;-76
2023/05/04 09:20:44;;;;;;;16.05;10.70;;;;;;;;;;5076430;28;20012;-71
2023/05/04 09:23:11;;;;;;;16.10;10.60;;;;;;;;;;5077050;28;20039;-73
2023/05/04 09:25:47;;;;;;;11.68;9.20;;;;;;;;;;5086851;28;20016;-73
2023/05/04 09:28:15;;;;;;;16.65;10.75;;;;;;;;;;5075571;28;20017;-72
2023/05/04 09:30:41;;;;;;;41.08;26.15;;;;;;;;;;5075340;28;20107;-72
2023/05/04 09:33:09;;;;;;;33.40;25.17;;;;;;;;;;5101377;28;20065;-71
2023/05/04 09:35:40;;;;;;;40.05;26.13;;;;;;;;;;5116194;28;20024;-73
2023/05/04 09:38:07;;;;;;;40.90;27.17;;;;;;;;;;5116055;28;20027;-73
2023/05/04 09:40:35;;;;;;;37.45;23.80;;;;;;;;;;5115676;28;20104;-74
2023/05/04 09:43:02;;;;;;;30.10;22.85;;;;;;;;;;5114146;28;20027;-72
2023/05/04 09:45:47;;;;;;;29.23;20.95;;;;;;;;;;5086290;28;20017;-71
2023/05/04 09:48:16;;;;;;;37.03;23.67;;;;;;;;;;5075068;28;20505;-74
2023/05/04 09:51:02;;;;;;;31.45;23.20;;;;;;;;;;5077611;28;20051;-73
2023/05/04 09:53:30;;;;;;;29.42;21.73;;;;;;;;;;5075330;28;20103;-71
2023/05/04 09:55:59;;;;;;;39.70;26.52;;;;;;;;;;5075186;28;20025;-71
2023/05/04 09:58:25;;;;;;;61.30;36.75;;;;;;;;;;5074859;28;20066;-72
2023/05/04 10:00:53;;;;;;;51.80;31.23;;;;;;;;;;5075043;28;20029;-72
2023/05/04 10:03:20;;;;;;;36.53;24.80;;;;;;;;;;5075108;28;20031;-71
2023/05/04 10:05:48;;;;;;;34.33;23.48;;;;;;;;;;5074544;28;20470;-70
2023/05/04 10:08:15;;;;;;;33.85;21.67;;;;;;;;;;5074561;28;20111;-69
2023/05/04 10:10:43;;;;;;;36.20;24.10;;;;;;;;;;5074260;28;20087;-67
2023/05/04 10:13:09;;;;;;;45.13;27.90;;;;;;;;;;5074322;28;20105;-68
2023/05/04 10:15:39;;;;;;;37.92;26.05;;;;;;;;;;5083058;28;20020;-68
2023/05/04 10:18:26;;;;;;;46.65;30.65;;;;;;;;;;5088483;28;20025;-66
2023/05/04 10:21:03;;;;;;;40.03;25.08;;;;;;;;;;5071466;28;20024;-67
2023/05/04 10:23:39;;;;;;;33.45;23.50;;;;;;;;;;5079809;28;20080;-69
2023/05/04 10:26:09;;;;;;;45.88;31.00;;;;;;;;;;5115027;28;20034;-74
2023/05/04 10:28:40;;;;;;;66.43;37.63;;;;;;;;;;5114817;28;20019;-69
2023/05/04 10:31:07;;;;;;;57.38;39.72;;;;;;;;;;5114887;28;20024;-69
2023/05/04 10:33:43;;;;;;;59.83;41.33;;;;;;;;;;5115118;28;20164;-69
2023/05/04 10:36:10;;;;;;;66.60;44.17;;;;;;;;;;5114879;28;20259;-70
2023/05/04 10:38:38;;;;;;;57.63;39.38;;;;;;;;;;5114656;28;20024;-70
2023/05/04 10:41:14;;;;;;;55.47;38.35;;;;;;;;;;5115007;28;20035;-70
2023/05/04 10:43:41;;;;;;;47.80;35.70;;;;;;;;;;5110376;28;20040;-73
2023/05/04 10:46:19;;;;;;;58.03;37.97;;;;;;;;;;5083866;28;20064;-69
2023/05/04 10:48:45;;;;;;;56.25;38.13;;;;;;;;;;5073989;28;20098;-68
2023/05/04 10:51:22;;;;;;;53.97;38.72;;;;;;;;;;5073556;28;20359;-67
2023/05/04 10:53:49;;;;;;;65.53;45.08;;;;;;;;;;5073716;28;20027;-68
2023/05/04 10:56:25;;;;;;;77.63;48.22;;;;;;;;;;5085259;28;20028;-68
2023/05/04 10:58:52;;;;;;;86.43;55.17;;;;;;;;;;5073545;28;20048;-69
2023/05/04 11:01:20;;;;;;;86.88;54.42;;;;;;;;;;5073847;28;20082;-69
2023/05/04 11:03:47;;;;;;;80.82;52.05;;;;;;;;;;5073395;28;20037;-69
2023/05/04 11:06:16;;;;;;;87.35;56.72;;;;;;;;;;5073622;28;20496;-68
2023/05/04 11:08:43;;;;;;;104.57;64.70;;;;;;;;;;5073217;28;20024;-69
2023/05/04 11:11:09;;;;;;;99.40;63.40;;;;;;;;;;5086777;28;20028;-68
2023/05/04 11:13:43;;;;;;;97.60;62.75;;;;;;;;;;5074152;28;20037;-69
2023/05/04 11:16:11;;;;;;;99.10;64.03;;;;;;;;;;5073011;28;20473;-68
2023/05/04 11:18:38;;;;;;;83.55;58.50;;;;;;;;;;5073174;28;20017;-68
2023/05/04 11:21:04;;;;;;;90.85;59.20;;;;;;;;;;5073195;28;20048;-68
2023/05/04 11:23:32;;;;;;;82.50;54.33;;;;;;;;;;5072636;28;20028;-68
2023/05/04 11:26:04;;;;;;;75.10;51.97;;;;;;;;;;5073727;28;20031;-68
2023/05/04 11:28:33;;;;;;;77.75;51.28;;;;;;;;;;5082813;28;20044;-69
2023/05/04 11:31:01;;;;;;;82.72;56.97;;;;;;;;;;5072960;28;20039;-68
2023/05/04 11:33:27;;;;;;;81.95;53.50;;;;;;;;;;5073068;28;20094;-68
2023/05/04 11:36:01;;;;;;;84.45;53.97;;;;;;;;;;5073698;28;20047;-69
2023/05/04 11:38:28;;;;;;;73.15;48.85;;;;;;;;;;5073839;28;20441;-68
2023/05/04 11:40:54;;;;;;;83.88;50.65;;;;;;;;;;5072699;28;20032;-68
2023/05/04 11:43:21;;;;;;;80.88;52.50;;;;;;;;;;5072974;28;20013;-70
2023/05/04 11:45:48;;;;;;;81.43;54.15;;;;;;;;;;5072868;28;20020;-69
2023/05/04 11:48:15;;;;;;;89.78;60.00;;;;;;;;;;5071795;28;20275;-70
2023/05/04 11:50:42;;;;;;;99.63;65.88;;;;;;;;;;5072859;28;20086;-70
2023/05/04 11:53:10;;;;;;;101.78;68.53;;;;;;;;;;5072842;28;20428;-73
2023/05/04 11:55:37;;;;;;;120.82;87.25;;;;;;;;;;5072815;28;20017;-68
2023/05/04 11:58:06;;;;;;;104.95;72.25;;;;;;;;;;5084298;28;20021;-68
2023/05/04 12:00:38;;;;;;;176.07;127.72;;;;;;;;;;5073368;28;20025;-70
2023/05/04 12:03:07;;;;;;;97.45;63.88;;;;;;;;;;5073447;28;20035;-68
2023/05/04 12:05:34;;;;;;;201.80;144.02;;;;;;;;;;5083812;28;20012;-72
2023/05/04 12:08:02;;;;;;;97.80;65.43;;;;;;;;;;5070956;28;20472;-68
2023/05/04 12:10:34;;;;;;;99.85;68.63;;;;;;;;;;5086419;28;20081;-72
2023/05/04 12:13:01;;;;;;;77.72;52.50;;;;;;;;;;5085910;28;20089;-72
2023/05/04 12:15:30;;;;;;;76.30;52.10;;;;;;;;;;5083842;28;20016;-68
2023/05/04 12:17:57;;;;;;;73.78;48.90;;;;;;;;;;5067896;28;20056;-70
2023/05/04 12:20:24;;;;;;;64.30;43.30;;;;;;;;;;5083732;28;20024;-70
2023/05/04 12:22:51;;;;;;;61.47;44.95;;;;;;;;;;5082117;28;20023;-70
2023/05/04 12:25:18;;;;;;;53.13;36.22;;;;;;;;;;5081984;28;20017;-70
2023/05/04 12:27:45;;;;;;;58.00;40.58;;;;;;;;;;5083649;28;20287;-69
2023/05/04 12:30:13;;;;;;;74.68;48.55;;;;;;;;;;5084037;28;20361;-70
2023/05/04 12:32:39;;;;;;;54.20;38.33;;;;;;;;;;5084215;28;20023;-70
2023/05/04 12:35:06;;;;;;;49.08;35.15;;;;;;;;;;5084650;28;20542;-69
2023/05/04 12:37:33;;;;;;;62.55;40.30;;;;;;;;;;5089956;28;20384;-71
2023/05/04 12:40:00;;;;;;;50.13;36.22;;;;;;;;;;5087672;28;20089;-71
2023/05/04 12:42:26;;;;;;;52.22;33.53;;;;;;;;;;5085608;28;20072;-68
2023/05/04 12:44:53;;;;;;;28.20;20.75;;;;;;;;;;5086868;28;20155;-73
2023/05/04 12:47:23;;;;;;;49.47;37.53;;;;;;;;;;5088367;28;20456;-69
2023/05/04 12:49:49;;;;;;;32.90;21.42;;;;;;;;;;5094676;28;20024;-72
2023/05/04 12:52:16;;;;;;;27.23;18.50;;;;;;;;;;5093483;28;20473;-72
2023/05/04 12:54:43;;;;;;;23.05;15.50;;;;;;;;;;5077030;28;20599;-71
2023/05/04 12:57:11;;;;;;;23.23;14.95;;;;;;;;;;5077158;28;20091;-71
2023/05/04 12:59:37;;;;;;;37.42;18.48;;;;;;;;;;5077248;28;20428;-68
2023/05/04 13:02:04;;;;;;;23.17;15.50;;;;;;;;;;5079514;28;20291;-76
2023/05/04 13:04:30;;;;;;;51.70;44.40;;;;;;;;;;5097161;28;20059;-69
2023/05/04 13:06:57;;;;;;;34.55;21.92;;;;;;;;;;5096617;28;20024;-70
2023/05/04 13:09:24;;;;;;;23.48;12.57;;;;;;;;;;5087983;28;20078;-70
2023/05/04 13:11:50;;;;;;;35.40;22.63;;;;;;;;;;5076801;28;20107;-69
2023/05/04 13:14:17;;;;;;;33.88;23.80;;;;;;;;;;5092982;28;20524;-68
2023/05/04 13:16:44;;;;;;;23.02;14.85;;;;;;;;;;5090464;28;20024;-70
2023/05/04 13:19:11;;;;;;;20.75;14.55;;;;;;;;;;5087350;28;20053;-72
2023/05/04 13:21:37;;;;;;;33.78;19.63;;;;;;;;;;5095746;28;20099;-70
2023/05/04 13:24:04;;;;;;;18.55;12.55;;;;;;;;;;5094933;28;20024;-71
2023/05/04 13:26:32;;;;;;;14.68;10.00;;;;;;;;;;5094656;28;20028;-72
2023/05/04 13:28:58;;;;;;;22.02;15.02;;;;;;;;;;5094527;28;20133;-72
2023/05/04 13:31:25;;;;;;;47.15;34.47;;;;;;;;;;5092827;28;20108;-73
2023/05/04 13:33:52;;;;;;;37.92;24.33;;;;;;;;;;5094802;28;20145;-71
2023/05/04 13:36:18;;;;;;;26.98;18.08;;;;;;;;;;5093916;28;20035;-71
2023/05/04 13:38:45;;;;;;;18.13;12.75;;;;;;;;;;5095237;28;20069;-72
2023/05/04 13:41:12;;;;;;;28.13;15.93;;;;;;;;;;5094770;28;20042;-70
2023/05/04 13:43:38;;;;;;;24.33;12.35;;;;;;;;;;5097179;28;20106;-71
2023/05/04 13:46:05;;;;;;;56.35;38.53;;;;;;;;;;5097367;28;20032;-70
2023/05/04 13:48:32;;;;;;;23.05;17.85;;;;;;;;;;5098071;28;20023;-68
2023/05/04 13:50:59;;;;;;;30.95;24.63;;;;;;;;;;5096702;28;20027;-71
2023/05/04 13:53:26;;;;;;;23.80;16.95;;;;;;;;;;5096837;28;20024;-71
2023/05/04 13:55:52;;;;;;;22.33;11.50;;;;;;;;;;5096843;28;20027;-69
2023/05/04 13:58:19;;;;;;;18.15;10.55;;;;;;;;;;5096514;28;20119;-68
2023/05/04 14:00:46;;;;;;;22.65;16.05;;;;;;;;;;5096669;28;20016;-72
2023/05/04 14:03:12;;;;;;;21.50;14.02;;;;;;;;;;5096670;28;20024;-69
2023/05/04 14:05:39;;;;;;;25.05;17.38;;;;;;;;;;5096524;28;20020;-70
2023/05/04 14:08:05;;;;;;;22.98;15.75;;;;;;;;;;5090146;28;20028;-69
2023/05/04 14:10:32;;;;;;;28.60;19.25;;;;;;;;;;5080729;28;20460;-69
2023/05/04 14:12:59;;;;;;;27.65;16.17;;;;;;;;;;5085250;28;20064;-68
2023/05/04 14:15:26;;;;;;;22.38;14.75;;;;;;;;;;5076093;28;20099;-69
2023/05/04 14:17:52;;;;;;;38.05;26.63;;;;;;;;;;5076319;28;20044;-69
2023/05/04 14:20:19;;;;;;;47.85;13.52;;;;;;;;;;5076205;28;20470;-68